Terminal Aerodrome Forecast
Issued by NWS

Home | Current Version | Previous Version | Text Only | Print | Product List | Glossary On
Versions: 1 2 3 4 5 6 7 8 9 10 11 12 13 14 15 16 17 18 19 20 21 22 23 24 25 26 27 28 29 30 31 32 33 34 35 36 37 38 39
000
FTUS43 KMPX 220520
TAFRWF
TAF
KRWF 220520Z 2206/2306 08005KT P6SM BKN100
     FM221300 06010KT 4SM -FZRAPL BR OVC030
     FM221600 05012G21KT 3SM -FZRAPL BR OVC011
     FM221800 03012G21KT 3SM -RA BR OVC007
     FM222300 01012G21KT P6SM OVC007
     FM230500 34012KT P6SM OVC008=

USA.gov is the U.S. government's official web portal to all federal, state and local government web resources and services.